Time;durP1;ratioP1;P1;durP2;ratioP2;P2;SDS_P1;SDS_P2;PMS_P1;PMS_P2;Temp;Humidity;BMP_temperature;BMP_pressure;BME280_temperature;BME280_humidity;BME280_pressure;Samples;Min_cycle;Max_cycle;Signal;HPM_P1;HPM_P2
2023/07/23 00:02:18;;;;;;;;;1.33;1.33;;;;;22.93;40.48;100708.09;5057163;28;45533;-71
2023/07/23 00:04:43;;;;;;;;;1.00;1.00;;;;;22.92;40.74;100701.03;5058846;28;45419;-72
2023/07/23 00:07:09;;;;;;;;;1.67;1.67;;;;;22.98;40.44;100700.09;5058597;28;45602;-72
2023/07/23 00:09:34;;;;;;;;;2.00;2.00;;;;;22.94;40.57;100698.91;5059050;28;65594;-72
2023/07/23 00:12:00;;;;;;;;;2.67;1.33;;;;;22.90;40.72;100695.84;5059542;28;45341;-72
2023/07/23 00:14:26;;;;;;;;;3.00;3.00;;;;;22.87;41.28;100690.03;5059896;28;45384;-72
2023/07/23 00:16:52;;;;;;;;;2.00;2.00;;;;;22.88;40.99;100686.28;5059600;28;45402;-72
2023/07/23 00:19:19;;;;;;;;;2.00;2.00;;;;;22.74;41.61;100675.53;5058055;28;47078;-72
2023/07/23 00:21:46;;;;;;;;;2.00;2.00;;;;;22.86;41.30;100688.38;5058025;28;45479;-71
2023/07/23 00:24:11;;;;;;;;;1.33;1.33;;;;;22.82;41.18;100689.88;5058361;28;45430;-71
2023/07/23 00:26:37;;;;;;;;;3.00;2.00;;;;;22.72;41.17;100672.22;5059601;28;45194;-72
2023/07/23 00:29:02;;;;;;;;;2.33;2.33;;;;;22.73;41.42;100687.44;5057533;28;66759;-72
2023/07/23 00:31:27;;;;;;;;;2.00;1.00;;;;;22.70;41.58;100687.06;5059579;28;45277;-72
2023/07/23 00:33:53;;;;;;;;;2.00;2.00;;;;;22.65;41.67;100679.59;5059468;28;45352;-72
2023/07/23 00:36:18;;;;;;;;;2.00;2.00;;;;;22.61;41.84;100675.66;5059574;28;45515;-73
2023/07/23 00:38:43;;;;;;;;;1.33;1.33;;;;;22.60;42.03;100679.44;5058873;28;55086;-72
2023/07/23 00:41:09;;;;;;;;;1.67;1.00;;;;;22.23;41.92;100619.00;5059011;28;47541;-72
2023/07/23 00:43:34;;;;;;;;;2.00;2.00;;;;;22.24;41.95;100625.22;5059230;28;45354;-70
2023/07/23 00:45:59;;;;;;;;;2.67;2.00;;;;;22.53;42.33;100675.16;5057994;28;45261;-71
2023/07/23 00:48:25;;;;;;;;;1.67;1.67;;;;;22.29;42.24;100634.34;5057722;28;46462;-72
2023/07/23 00:50:51;;;;;;;;;1.00;1.00;;;;;22.11;42.50;100605.34;5057994;28;45539;-72
2023/07/23 00:53:17;;;;;;;;;3.00;3.00;;;;;22.44;42.88;100663.78;5059187;28;45473;-72
2023/07/23 00:55:43;;;;;;;;;1.00;1.00;;;;;22.32;42.87;100657.44;5059681;28;45380;-71
2023/07/23 00:58:08;;;;;;;;;3.33;3.00;;;;;22.37;43.64;100669.25;5058847;28;46005;-72
2023/07/23 01:00:34;;;;;;;;;1.00;1.00;;;;;21.85;44.08;100587.44;5059114;28;45481;-70
2023/07/23 01:02:59;;;;;;;;;2.00;2.00;;;;;22.21;43.98;100645.44;5059105;28;45213;-72
2023/07/23 01:05:25;;;;;;;;;2.00;2.00;;;;;22.21;44.60;100656.28;5059334;28;45258;-72
2023/07/23 01:07:51;;;;;;;;;1.67;1.67;;;;;22.15;44.66;100652.56;5058730;28;45364;-72
2023/07/23 01:10:19;;;;;;;;;2.00;2.00;;;;;22.04;45.32;100656.03;5058776;28;45199;-73
2023/07/23 01:12:45;;;;;;;;;2.67;2.67;;;;;21.69;45.45;100587.16;5058680;28;45482;-72
2023/07/23 01:15:10;;;;;;;;;4.00;3.00;;;;;22.00;45.32;100627.69;5058886;28;45545;-72
2023/07/23 01:17:37;;;;;;;;;2.00;2.00;;;;;22.03;45.48;100642.69;5058604;28;46308;-72
2023/07/23 01:20:04;;;;;;;;;2.67;2.67;;;;;21.98;44.97;100631.66;5058650;28;45322;-72
2023/07/23 01:22:34;;;;;;;;;3.33;2.33;;;;;21.83;44.88;100594.13;5058753;28;45313;-72
2023/07/23 01:24:59;;;;;;;;;4.00;3.00;;;;;22.13;44.79;100637.59;5058631;28;45365;-71
2023/07/23 01:27:24;;;;;;;;;1.00;1.00;;;;;22.08;45.29;100632.03;5058383;28;46317;-71
2023/07/23 01:29:50;;;;;;;;;2.33;2.33;;;;;21.73;45.41;100577.53;5058411;28;45482;-71
2023/07/23 01:32:15;;;;;;;;;2.33;2.00;;;;;21.89;45.28;100608.66;5040279;28;45344;-71
2023/07/23 01:34:41;;;;;;;;;2.33;2.33;;;;;21.89;45.54;100614.06;5058473;28;47374;-71
2023/07/23 01:37:08;;;;;;;;;3.00;1.00;;;;;21.32;45.15;100511.28;5058209;28;45599;-71
2023/07/23 01:39:35;;;;;;;;;1.67;1.33;;;;;21.84;45.39;100596.63;5058170;28;45487;-72
2023/07/23 01:42:00;;;;;;;;;2.00;2.00;;;;;21.98;45.17;100613.53;5058041;28;45528;-72
2023/07/23 01:44:26;;;;;;;;;2.67;1.00;;;;;21.99;45.67;100603.53;5058379;28;45222;-72
2023/07/23 01:46:51;;;;;;;;;2.33;2.33;;;;;21.98;45.69;100612.72;5057957;28;46038;-71
2023/07/23 01:49:16;;;;;;;;;1.00;1.00;;;;;21.86;46.32;100594.50;5058293;28;45193;-72
2023/07/23 01:51:42;;;;;;;;;2.00;2.00;;;;;21.66;46.08;100550.56;5058235;28;45259;-72
2023/07/23 01:54:07;;;;;;;;;1.67;1.67;;;;;22.00;46.15;100597.91;5058642;28;45257;-71
2023/07/23 01:56:32;;;;;;;;;4.00;2.33;;;;;21.96;46.39;100588.56;5057727;28;46450;-71
2023/07/23 01:58:57;;;;;;;;;1.00;1.00;;;;;21.94;46.26;100579.84;5058077;28;45534;-72
2023/07/23 02:01:23;;;;;;;;;3.67;3.00;;;;;21.79;46.13;100552.28;5057960;28;45304;-71
2023/07/23 02:03:48;;;;;;;;;3.00;3.00;;;;;21.99;46.29;100588.13;5058133;28;45602;-71
2023/07/23 02:06:13;;;;;;;;;2.33;2.33;;;;;21.65;46.75;100534.53;5056360;28;47734;-71
2023/07/23 02:08:39;;;;;;;;;3.00;3.00;;;;;21.84;46.87;100590.38;5057655;28;45288;-72
2023/07/23 02:11:06;;;;;;;;;4.00;4.00;;;;;21.85;46.93;100594.72;5058002;28;45436;-72
2023/07/23 02:13:31;;;;;;;;;3.00;3.00;;;;;21.87;46.78;100595.34;5057891;28;45373;-73
2023/07/23 02:15:57;;;;;;;;;2.00;2.00;;;;;21.85;47.16;100573.09;5056426;28;46874;-72
2023/07/23 02:18:22;;;;;;;;;2.67;2.67;;;;;21.90;47.25;100592.19;5058001;28;45420;-71
2023/07/23 02:20:48;;;;;;;;;2.00;1.00;;;;;21.48;47.36;100532.38;5057895;28;45610;-73
2023/07/23 02:23:16;;;;;;;;;2.00;2.00;;;;;21.81;47.11;100599.72;5057930;28;45257;-72
2023/07/23 02:25:42;;;;;;;;;2.00;2.00;;;;;21.84;47.63;100598.50;5056667;28;45941;-71
2023/07/23 02:28:10;;;;;;;;;3.00;3.00;;;;;21.78;47.57;100592.06;5057291;28;45270;-71
2023/07/23 02:30:36;;;;;;;;;2.67;2.67;;;;;21.79;47.71;100585.59;5057577;28;45273;-72
2023/07/23 02:33:02;;;;;;;;;2.00;2.00;;;;;21.73;47.76;100577.53;5057878;28;45269;-71
2023/07/23 02:35:27;;;;;;;;;3.00;1.00;;;;;21.66;47.97;100557.84;5057196;28;45878;-72
2023/07/23 02:37:52;;;;;;;;;2.00;2.00;;;;;21.75;47.98;100583.56;5057567;28;45294;-73
2023/07/23 02:40:20;;;;;;;;;2.00;2.00;;;;;21.62;48.38;100560.13;5057466;28;45451;-71
2023/07/23 02:42:48;;;;;;;;;2.00;2.00;;;;;21.73;48.46;100582.97;5056481;28;45249;-73
2023/07/23 02:45:13;;;;;;;;;1.00;1.00;;;;;21.78;48.24;100572.28;5057474;28;45683;-73
2023/07/23 02:47:38;;;;;;;;;2.33;2.33;;;;;21.80;48.16;100581.00;5057258;28;45610;-72
2023/07/23 02:50:04;;;;;;;;;3.33;2.00;;;;;21.74;48.29;100573.78;5057582;28;45382;-72
2023/07/23 02:52:29;;;;;;;;;1.67;1.67;;;;;21.74;48.51;100582.72;5056283;28;45343;-71
2023/07/23 02:54:55;;;;;;;;;1.00;1.00;;;;;21.74;48.81;100576.50;5057109;28;46318;-72
2023/07/23 02:57:20;;;;;;;;;2.67;2.67;;;;;21.73;49.26;100582.97;5056640;28;46848;-72
2023/07/23 02:59:45;;;;;;;;;2.33;2.33;;;;;21.71;49.08;100566.13;5057169;28;45615;-72
2023/07/23 03:02:12;;;;;;;;;4.00;2.00;;;;;21.38;49.02;100537.44;5057343;28;45577;-72
2023/07/23 03:04:39;;;;;;;;;2.00;2.00;;;;;21.66;48.80;100568.66;5056683;28;48032;-72
2023/07/23 03:07:04;;;;;;;;;4.33;3.33;;;;;21.51;48.87;100544.63;5056745;28;45400;-72
2023/07/23 03:09:30;;;;;;;;;2.00;1.00;;;;;21.74;48.46;100571.09;5056892;28;48417;-72
2023/07/23 03:11:55;;;;;;;;;3.67;2.33;;;;;21.69;48.83;100571.75;5057009;28;45305;-72
2023/07/23 03:14:20;;;;;;;;;2.00;2.00;;;;;21.58;49.94;100556.22;5057165;28;46496;-71
2023/07/23 03:16:45;;;;;;;;;3.00;3.00;;;;;21.44;49.88;100552.81;5057013;28;45300;-71
2023/07/23 03:19:11;;;;;;;;;2.33;2.00;;;;;21.53;50.18;100570.41;5056698;28;48707;-71
2023/07/23 03:21:36;;;;;;;;;2.00;2.00;;;;;21.60;51.09;100566.81;5055563;28;45250;-72
2023/07/23 03:24:02;;;;;;;;;2.00;2.00;;;;;21.54;51.08;100563.97;5056896;28;45565;-72
2023/07/23 03:26:27;;;;;;;;;2.00;2.00;;;;;21.58;51.30;100574.34;5056895;28;45226;-72
2023/07/23 03:28:53;;;;;;;;;2.00;2.00;;;;;21.28;51.59;100525.47;5056957;28;45598;-71
2023/07/23 03:31:18;;;;;;;;;3.00;3.00;;;;;21.39;51.25;100541.81;5057073;28;45203;-74
2023/07/23 03:33:44;;;;;;;;;1.67;1.67;;;;;21.36;51.59;100555.78;5056510;28;46459;-72
2023/07/23 03:36:11;;;;;;;;;6.00;2.33;;;;;21.50;51.79;100576.28;5057074;28;45514;-73
2023/07/23 03:38:36;;;;;;;;;3.33;3.33;;;;;21.54;51.56;100579.34;5042342;28;45340;-72
2023/07/23 03:41:02;;;;;;;;;1.00;1.00;;;;;21.41;51.29;100566.75;5060784;28;45436;-71
2023/07/23 03:43:27;;;;;;;;;3.00;3.00;;;;;21.10;51.04;100507.28;5060198;28;45748;-70
2023/07/23 03:45:53;;;;;;;;;2.67;2.67;;;;;21.48;51.63;100562.13;5042194;28;46210;-71
2023/07/23 03:48:18;;;;;;;;;2.33;2.33;;;;;21.47;51.31;100565.06;5042019;28;45509;-71
2023/07/23 03:50:44;;;;;;;;;5.00;3.33;;;;;21.33;51.53;100548.09;5060299;28;45368;-70
2023/07/23 03:53:09;;;;;;;;;3.67;3.00;;;;;21.38;52.05;100564.50;5041688;28;47824;-72
2023/07/23 03:55:34;;;;;;;;;5.00;4.33;;;;;21.37;51.67;100559.31;5059145;28;61514;-72
2023/07/23 03:57:59;;;;;;;;;1.67;1.67;;;;;21.39;51.72;100554.50;5058136;28;45321;-71
2023/07/23 04:00:25;;;;;;;;;2.33;2.33;;;;;21.43;51.88;100561.97;5060134;28;45292;-73
2023/07/23 04:02:50;;;;;;;;;4.00;4.00;;;;;21.25;52.01;100515.94;5059551;28;45560;-73
2023/07/23 04:05:16;;;;;;;;;3.33;2.33;;;;;21.32;52.28;100541.03;5059675;28;45550;-73
2023/07/23 04:07:41;;;;;;;;;3.00;3.00;;;;;21.40;51.75;100535.34;5060079;28;45243;-71
2023/07/23 04:10:06;;;;;;;;;2.00;2.00;;;;;21.35;52.10;100529.78;5060536;28;45348;-71
2023/07/23 04:12:34;;;;;;;;;3.00;3.00;;;;;21.44;52.00;100550.13;5058349;28;47572;-71
2023/07/23 04:15:02;;;;;;;;;4.00;3.00;;;;;21.41;52.52;100552.41;5059901;28;45490;-70
2023/07/23 04:17:27;;;;;;;;;4.00;2.67;;;;;21.41;52.39;100538.88;5059487;28;45271;-71
2023/07/23 04:19:52;;;;;;;;;4.33;4.33;;;;;21.46;52.64;100548.00;5059661;28;45463;-71
2023/07/23 04:22:18;;;;;;;;;3.67;3.00;;;;;21.40;52.11;100521.81;5057679;28;56564;-71
2023/07/23 04:24:43;;;;;;;;;5.67;4.00;;;;;21.35;52.64;100529.78;5059170;28;55749;-72
2023/07/23 04:27:08;;;;;;;;;2.67;2.67;;;;;21.33;52.61;100531.88;5059196;28;45471;-71
2023/07/23 04:29:34;;;;;;;;;3.67;3.67;;;;;21.31;52.62;100525.88;5057914;28;45734;-70
2023/07/23 04:31:59;;;;;;;;;3.67;2.33;;;;;21.39;53.37;100533.69;5057704;28;46762;-71
2023/07/23 04:34:24;;;;;;;;;2.00;2.00;;;;;21.39;52.97;100533.69;5059328;28;45671;-70
2023/07/23 04:36:51;;;;;;;;;3.00;3.00;;;;;21.38;53.19;100529.34;5060160;28;45322;-72
2023/07/23 04:39:17;;;;;;;;;4.25;2.25;;;;;21.41;53.17;100530.75;5059177;28;45280;-71
2023/07/23 04:41:43;;;;;;;;;3.33;3.00;;;;;21.36;53.39;100527.91;5059007;28;46258;-72
2023/07/23 04:44:08;;;;;;;;;2.33;2.33;;;;;21.32;53.66;100530.22;5059278;28;45330;-72
2023/07/23 04:46:33;;;;;;;;;2.00;2.00;;;;;21.25;53.88;100532.16;5058666;28;54427;-71
2023/07/23 04:48:59;;;;;;;;;5.00;3.00;;;;;21.25;53.60;100527.56;5058060;28;45530;-71
2023/07/23 04:51:24;;;;;;;;;1.00;1.00;;;;;21.17;53.64;100518.84;5059155;28;45285;-70
2023/07/23 04:53:49;;;;;;;;;5.67;4.00;;;;;21.08;53.61;100498.56;5040966;28;45354;-72
2023/07/23 04:56:15;;;;;;;;;1.33;1.33;;;;;20.91;53.54;100482.03;5059034;28;45338;-72
2023/07/23 04:58:40;;;;;;;;;3.67;3.00;;;;;21.21;53.92;100520.06;5058847;28;45261;-71
2023/07/23 05:01:10;;;;;;;;;3.00;3.00;;;;;21.22;53.47;100527.13;5058739;28;47749;-71
2023/07/23 05:03:36;;;;;;;;;3.00;3.00;;;;;20.86;53.89;100466.47;5058759;28;45426;-72
2023/07/23 05:06:03;;;;;;;;;2.00;2.00;;;;;20.72;54.06;100445.97;5041699;28;45519;-71
2023/07/23 05:08:29;;;;;;;;;4.67;4.00;;;;;21.18;53.91;100515.09;5041235;28;45266;-71
2023/07/23 05:11:01;;;;;;;;;3.00;3.00;;;;;21.25;53.43;100524.03;5040518;28;46904;-71
2023/07/23 05:13:28;;;;;;;;;2.00;1.00;;;;;21.29;53.62;100533.38;5058258;28;45219;-71
2023/07/23 05:15:53;;;;;;;;;3.00;3.00;;;;;21.01;53.76;100486.94;5058509;28;45427;-71
2023/07/23 05:18:19;;;;;;;;;2.33;2.33;;;;;21.19;53.84;100514.06;5058626;28;45455;-71
2023/07/23 05:20:44;;;;;;;;;4.00;4.00;;;;;21.25;53.97;100522.16;5058566;28;45860;-71
2023/07/23 05:23:10;;;;;;;;;2.33;2.00;;;;;21.25;54.13;100521.34;5057806;28;60228;-72
2023/07/23 05:25:35;;;;;;;;;3.00;3.00;;;;;20.86;54.00;100447.56;5059072;28;45308;-71
2023/07/23 05:28:00;;;;;;;;;3.67;2.00;;;;;21.21;54.10;100499.25;5058462;28;50559;-72
2023/07/23 05:30:26;;;;;;;;;1.67;1.67;;;;;21.19;54.27;100495.97;5058416;28;46232;-71
2023/07/23 05:32:51;;;;;;;;;2.33;2.33;;;;;21.22;53.98;100500.09;5057813;28;45340;-72
2023/07/23 05:35:17;;;;;;;;;2.00;2.00;;;;;21.34;54.18;100509.19;5057409;28;45465;-70
2023/07/23 05:37:42;;;;;;;;;2.00;2.00;;;;;21.31;54.34;100509.63;5058934;28;45300;-72
2023/07/23 05:40:08;;;;;;;;;3.67;3.00;;;;;21.29;54.57;100511.72;5058267;28;46741;-72
2023/07/23 05:42:33;;;;;;;;;1.00;1.00;;;;;21.34;54.21;100511.06;5058070;28;45488;-71
2023/07/23 05:44:59;;;;;;;;;3.33;3.33;;;;;21.39;54.31;100508.53;5058237;28;45405;-71
2023/07/23 05:47:24;;;;;;;;;3.67;3.67;;;;;21.38;54.31;100505.00;5040623;28;45416;-71
2023/07/23 05:49:49;;;;;;;;;3.00;3.00;;;;;21.33;54.77;100507.53;5058225;28;46774;-73
2023/07/23 05:52:15;;;;;;;;;4.00;4.00;;;;;21.22;54.65;100502.78;5057813;28;45213;-72
2023/07/23 05:54:40;;;;;;;;;3.00;2.33;;;;;21.37;54.82;100518.75;5058064;28;45368;-72
2023/07/23 05:57:06;;;;;;;;;4.33;4.33;;;;;21.39;55.06;100517.47;5057954;28;45381;-72
2023/07/23 05:59:31;;;;;;;;;4.00;2.00;;;;;21.32;55.12;100505.06;5057914;28;46409;-71
2023/07/23 06:01:56;;;;;;;;;2.00;2.00;;;;;21.05;55.39;100455.75;5057962;28;45285;-72
2023/07/23 06:04:22;;;;;;;;;3.33;3.33;;;;;21.48;54.83;100510.75;5058201;28;45407;-70
2023/07/23 06:06:47;;;;;;;;;3.00;3.00;;;;;21.45;54.63;100505.78;5056443;28;45455;-71
2023/07/23 06:09:13;;;;;;;;;3.00;2.00;;;;;21.65;54.52;100521.03;5057477;28;45969;-71
2023/07/23 06:11:38;;;;;;;;;11.33;4.33;;;;;21.66;55.06;100511.84;5057411;28;45435;-71
2023/07/23 06:14:04;;;;;;;;;2.67;2.00;;;;;21.66;54.72;100506.44;5057688;28;45468;-71
2023/07/23 06:16:30;;;;;;;;;6.33;3.67;;;;;21.76;54.21;100512.16;5039475;28;45555;-72
2023/07/23 06:18:56;;;;;;;;;6.67;4.00;;;;;21.74;54.26;100495.31;5057361;28;47649;-72
2023/07/23 06:21:21;;;;;;;;;3.33;3.33;;;;;21.71;54.54;100510.13;5039251;28;45515;-72
2023/07/23 06:23:47;;;;;;;;;3.33;2.33;;;;;21.70;54.81;100503.06;5058055;28;45272;-72
2023/07/23 06:26:13;;;;;;;;;6.33;5.67;;;;;21.82;54.40;100522.09;5057892;28;45442;-73
2023/07/23 06:28:38;;;;;;;;;4.00;4.00;;;;;21.27;54.67;100431.88;5057664;28;45491;-73
2023/07/23 06:31:04;;;;;;;;;3.67;2.33;;;;;21.82;54.50;100512.13;5056283;28;45558;-71
2023/07/23 06:33:29;;;;;;;;;3.33;3.33;;;;;21.89;54.09;100522.03;5039620;28;45290;-73
2023/07/23 06:35:54;;;;;;;;;3.67;3.67;;;;;21.84;54.46;100498.34;5058070;28;45483;-72
2023/07/23 06:38:20;;;;;;;;;3.33;3.33;;;;;21.92;54.11;100527.81;5056935;28;63949;-72
2023/07/23 06:40:50;;;;;;;;;3.67;3.00;;;;;21.68;54.68;100497.03;5057308;28;45321;-73
2023/07/23 06:43:16;;;;;;;;;4.67;4.67;;;;;21.71;54.53;100509.28;5055705;28;45332;-72
2023/07/23 06:45:46;;;;;;;;;2.25;2.25;;;;;21.83;54.39;100507.53;5057769;28;45444;-72
2023/07/23 06:48:12;;;;;;;;;4.00;4.00;;;;;21.80;54.87;100522.31;5056943;28;45615;-72
2023/07/23 06:50:37;;;;;;;;;3.00;2.67;;;;;21.73;54.83;100518.84;5057121;28;45250;-72
2023/07/23 06:53:04;;;;;;;;;4.33;3.67;;;;;21.77;54.67;100524.63;5057527;28;45297;-72
2023/07/23 06:55:30;;;;;;;;;2.00;2.00;;;;;21.85;54.94;100522.50;5057768;28;45522;-72
2023/07/23 06:57:55;;;;;;;;;2.00;2.00;;;;;21.50;54.52;100470.78;5038382;28;46785;-71
2023/07/23 07:00:21;;;;;;;;;3.33;3.00;;;;;21.82;54.73;100527.50;5055970;28;45424;-73
2023/07/23 07:02:46;;;;;;;;;4.00;3.00;;;;;21.81;54.27;100506.91;5039059;28;45291;-71
2023/07/23 07:05:12;;;;;;;;;2.67;2.67;;;;;21.79;54.65;100500.88;5057026;28;45487;-73
2023/07/23 07:07:37;;;;;;;;;7.00;3.00;;;;;21.72;54.70;100500.97;5056963;28;46445;-72
2023/07/23 07:10:04;;;;;;;;;3.00;3.00;;;;;21.81;54.75;100523.13;5056852;28;45249;-72
2023/07/23 07:12:30;;;;;;;;;5.00;4.00;;;;;21.73;55.28;100523.44;5056035;28;45491;-73
2023/07/23 07:14:55;;;;;;;;;3.33;3.33;;;;;21.42;55.17;100468.34;5057164;28;45206;-72
2023/07/23 07:17:21;;;;;;;;;2.33;2.33;;;;;21.84;54.79;100520.00;5057047;28;46308;-72
2023/07/23 07:19:46;;;;;;;;;1.00;1.00;;;;;21.69;54.61;100500.59;5056829;28;45330;-71
2023/07/23 07:22:12;;;;;;;;;4.00;3.00;;;;;21.77;54.51;100505.69;5038404;28;45353;-71
2023/07/23 07:24:37;;;;;;;;;3.00;3.00;;;;;21.97;54.50;100525.25;5056519;28;45621;-72
2023/07/23 07:27:08;;;;;;;;;4.33;4.33;;;;;22.03;53.93;100505.44;5039018;28;45428;-74
2023/07/23 07:29:33;;;;;;;;;3.67;3.67;;;;;21.78;53.78;100455.94;5057107;28;45322;-72
2023/07/23 07:32:02;;;;;;;;;5.00;4.00;;;;;21.97;53.98;100494.66;5056677;28;45277;-72
2023/07/23 07:34:27;;;;;;;;;16.33;13.67;;;;;21.99;54.02;100493.38;5038652;28;45619;-72
2023/07/23 07:36:52;;;;;;;;;3.00;3.00;;;;;22.03;53.89;100491.06;5055097;28;48723;-70
2023/07/23 07:39:18;;;;;;;;;3.33;3.33;;;;;22.20;53.52;100512.97;5056177;28;45438;-72
2023/07/23 07:41:43;;;;;;;;;3.00;3.00;;;;;21.95;53.68;100456.16;5037994;28;45282;-71
2023/07/23 07:44:09;;;;;;;;;5.00;5.00;;;;;22.38;53.43;100518.38;5056296;28;45239;-72
2023/07/23 07:46:34;;;;;;;;;2.00;2.00;;;;;22.39;53.55;100501.91;5056130;28;45504;-73
2023/07/23 07:49:00;;;;;;;;;4.00;3.33;;;;;22.48;53.32;100515.97;5038469;28;45407;-73
2023/07/23 07:51:25;;;;;;;;;2.00;2.00;;;;;22.60;53.04;100516.84;5038532;28;45494;-72
2023/07/23 07:53:50;;;;;;;;;2.33;2.33;;;;;22.63;53.05;100519.13;5056838;28;45340;-71
2023/07/23 07:56:17;;;;;;;;;4.33;3.33;;;;;22.68;52.89;100521.97;5055875;28;45345;-71
2023/07/23 07:58:46;;;;;;;;;3.00;2.00;;;;;22.69;52.60;100512.78;5055920;28;45439;-72
2023/07/23 08:01:11;;;;;;;;;4.33;4.00;;;;;22.91;52.31;100520.44;5054957;28;45255;-72
2023/07/23 08:03:37;;;;;;;;;5.67;3.00;;;;;22.93;52.26;100530.00;5056606;28;45350;-72
2023/07/23 08:06:03;;;;;;;;;4.00;2.33;;;;;22.98;51.54;100524.69;5054890;28;46381;-71
2023/07/23 08:08:30;;;;;;;;;4.00;3.00;;;;;22.72;51.64;100468.97;5056101;28;45242;-72
2023/07/23 08:10:58;;;;;;;;;3.00;3.00;;;;;23.22;51.10;100527.47;5056130;28;45502;-70
2023/07/23 08:13:24;;;;;;;;;2.67;2.67;;;;;23.08;51.10;100505.19;5055846;28;45401;-73
2023/07/23 08:15:51;;;;;;;;;3.00;3.00;;;;;23.19;51.41;100533.38;5056204;28;46558;-72
2023/07/23 08:18:17;;;;;;;;;4.33;4.00;;;;;23.19;51.06;100528.78;5056253;28;45297;-71
2023/07/23 08:20:43;;;;;;;;;3.00;3.00;;;;;23.22;51.04;100536.44;5055819;28;45317;-74
2023/07/23 08:23:09;;;;;;;;;4.67;4.00;;;;;23.15;51.22;100516.75;5056431;28;45479;-72
2023/07/23 08:25:36;;;;;;;;;3.00;2.67;;;;;23.23;51.03;100535.41;5042330;28;48533;-72
2023/07/23 08:28:02;;;;;;;;;4.00;3.00;;;;;23.26;51.55;100524.09;5059387;28;45345;-72
2023/07/23 08:30:28;;;;;;;;;4.00;4.00;;;;;23.35;50.79;100538.94;5059569;28;45482;-73
2023/07/23 08:32:55;;;;;;;;;3.00;3.00;;;;;23.32;51.39;100535.88;5058144;28;45620;-72
2023/07/23 08:35:23;;;;;;;;;2.75;2.75;;;;;23.32;51.08;100525.03;5040836;28;48271;-72
2023/07/23 08:37:49;;;;;;;;;3.00;2.00;;;;;23.29;51.11;100534.47;5059037;28;45430;-71
2023/07/23 08:40:15;;;;;;;;;4.33;3.33;;;;;22.33;51.40;100374.69;5058174;28;45403;-71
2023/07/23 08:42:43;;;;;;;;;2.67;2.67;;;;;23.34;51.32;100531.06;5058137;28;45542;-73
2023/07/23 08:45:30;;;;;;;;;6.00;4.00;;;;;23.30;50.94;100527.97;5058856;28;45356;-72
2023/07/23 08:48:18;;;;;;;;;2.33;2.33;;;;;23.41;50.79;100534.47;5057917;28;45305;-72
2023/07/23 08:50:46;;;;;;;;;1.67;1.67;;;;;23.37;50.95;100530.56;5059399;28;45238;-72
2023/07/23 08:53:13;;;;;;;;;3.33;2.00;;;;;23.41;51.33;100529.03;5059377;28;45369;-72
2023/07/23 08:55:44;;;;;;;;;2.00;2.00;;;;;23.55;50.75;100529.66;5040712;28;47564;-72
2023/07/23 08:58:15;;;;;;;;;2.33;2.33;;;;;23.61;50.91;100542.31;5057148;28;45535;-72
2023/07/23 09:00:46;;;;;;;;;3.33;3.33;;;;;23.53;50.86;100529.91;5058932;28;45213;-71
2023/07/23 09:03:14;;;;;;;;;3.33;2.33;;;;;23.71;50.85;100541.75;5058889;28;45308;-73
2023/07/23 09:05:40;;;;;;;;;2.00;2.00;;;;;23.68;52.42;100524.06;5059031;28;46360;-73
2023/07/23 09:08:07;;;;;;;;;5.00;4.50;;;;;23.63;52.14;100508.47;5058792;28;45252;-73
2023/07/23 09:10:33;;;;;;;;;3.00;3.00;;;;;23.83;51.44;100537.16;5059435;28;45465;-74
2023/07/23 09:12:58;;;;;;;;;4.00;4.00;;;;;23.88;51.34;100534.56;5058760;28;45565;-73
2023/07/23 09:15:23;;;;;;;;;3.00;3.00;;;;;23.93;50.69;100540.94;5058360;28;46399;-71
2023/07/23 09:17:50;;;;;;;;;3.33;3.33;;;;;24.05;50.49;100531.97;5040907;28;45265;-72
2023/07/23 09:20:17;;;;;;;;;4.00;2.00;;;;;24.09;50.11;100520.38;5058927;28;46505;-71
2023/07/23 09:22:43;;;;;;;;;4.67;2.67;;;;;24.22;50.01;100538.28;5057364;28;45343;-71
2023/07/23 09:25:09;;;;;;;;;3.00;3.00;;;;;24.16;49.77;100526.50;5040031;28;47899;-73
2023/07/23 09:27:36;;;;;;;;;4.00;4.00;;;;;23.95;49.71;100492.63;5040225;28;45475;-71
2023/07/23 09:30:03;;;;;;;;;4.33;4.00;;;;;24.14;51.15;100536.78;5058772;28;45408;-72
2023/07/23 09:32:28;;;;;;;;;2.67;2.33;;;;;23.99;50.72;100522.84;5059564;28;45506;-70
2023/07/23 09:34:55;;;;;;;;;4.00;2.00;;;;;23.99;51.10;100550.00;5039670;28;47471;-72
2023/07/23 09:37:21;;;;;;;;;4.67;2.67;;;;;23.96;50.81;100537.72;5058202;28;45273;-71
2023/07/23 09:39:46;;;;;;;;;2.33;1.33;;;;;23.85;51.00;100544.00;5040541;28;45559;-72
2023/07/23 09:42:12;;;;;;;;;3.00;3.00;;;;;23.84;51.27;100530.66;5056833;28;45364;-72
2023/07/23 09:44:41;;;;;;;;;4.00;2.33;;;;;24.03;50.91;100550.34;5058306;28;45848;-71
2023/07/23 09:47:07;;;;;;;;;3.00;3.00;;;;;24.02;50.52;100533.22;5058277;28;45321;-71
2023/07/23 09:49:32;;;;;;;;;3.00;3.00;;;;;24.06;50.64;100539.03;5040040;28;45332;-73
2023/07/23 09:51:58;;;;;;;;;2.33;2.33;;;;;24.09;50.76;100557.56;5057630;28;45262;-72
2023/07/23 09:54:25;;;;;;;;;4.00;3.00;;;;;23.19;51.52;100425.72;5056933;28;45513;-72
2023/07/23 09:56:51;;;;;;;;;1.67;1.67;;;;;23.98;51.69;100564.66;5057318;28;45369;-71
2023/07/23 09:59:18;;;;;;;;;2.00;2.00;;;;;23.91;51.85;100555.81;5057602;28;45433;-72
2023/07/23 10:01:43;;;;;;;;;2.33;2.33;;;;;23.84;52.85;100574.13;5057735;28;45504;-72
2023/07/23 10:04:11;;;;;;;;;3.00;3.00;;;;;23.76;53.34;100572.56;5057412;28;45423;-72
2023/07/23 10:06:37;;;;;;;;;1.33;1.33;;;;;23.76;53.36;100583.41;5057824;28;45351;-72
2023/07/23 10:09:03;;;;;;;;;2.00;2.00;;;;;23.68;53.07;100575.63;5057506;28;45536;-73
2023/07/23 10:11:28;;;;;;;;;2.00;2.00;;;;;23.63;53.45;100570.06;5057588;28;45586;-72
2023/07/23 10:13:54;;;;;;;;;3.00;3.00;;;;;23.51;54.14;100563.75;5057457;28;45623;-72
2023/07/23 10:16:35;;;;;;;;;2.00;2.00;;;;;23.51;54.51;100586.28;5057481;28;45407;-72
2023/07/23 10:19:04;;;;;;;;;4.00;4.00;;;;;23.56;54.63;100589.16;5057450;28;45387;-72
2023/07/23 10:21:32;;;;;;;;;3.33;3.33;;;;;23.53;55.80;100586.88;5057866;28;45356;-73
2023/07/23 10:23:58;;;;;;;;;3.67;2.33;;;;;23.49;56.47;100587.59;5039326;28;48044;-74
2023/07/23 10:26:27;;;;;;;;;1.00;1.00;;;;;23.45;56.78;100578.28;5057016;28;45443;-72
2023/07/23 10:29:11;;;;;;;;;2.33;2.33;;;;;23.44;56.41;100593.72;5023115;28;45527;-71
2023/07/23 10:31:38;;;;;;;;;3.00;3.00;;;;;23.23;56.67;100564.41;5039375;28;45563;-72
2023/07/23 10:34:25;;;;;;;;;3.00;3.00;;;;;23.48;57.88;100603.06;5057027;28;46568;-72
2023/07/23 10:37:11;;;;;;;;;4.00;3.00;;;;;23.38;57.47;100587.31;5055567;28;45423;-71
2023/07/23 10:39:45;;;;;;;;;3.67;3.00;;;;;23.41;57.62;100590.63;5057253;28;45490;-72
2023/07/23 10:42:37;;;;;;;;;3.33;2.33;;;;;23.48;58.02;100602.22;5055639;28;45375;-72
2023/07/23 10:45:22;;;;;;;;;3.33;2.00;;;;;23.37;57.96;100596.53;5056575;28;46401;-73
2023/07/23 10:47:56;;;;;;;;;6.33;4.00;;;;;23.27;58.30;100590.00;5037940;28;45488;-72
2023/07/23 10:50:23;;;;;;;;;4.33;2.33;;;;;23.29;58.68;100605.00;5057228;28;45356;-72
2023/07/23 10:52:50;;;;;;;;;4.33;4.00;;;;;22.91;59.07;100544.84;5056033;28;45498;-71
2023/07/23 10:55:32;;;;;;;;;4.00;3.00;;;;;23.14;59.60;100599.16;5038593;28;48251;-71
2023/07/23 10:58:01;;;;;;;;;3.00;3.00;;;;;23.00;59.86;100578.69;5056381;28;45376;-71
2023/07/23 11:00:26;;;;;;;;;5.67;4.33;;;;;23.12;59.86;100603.97;5039063;28;45543;-73
2023/07/23 11:02:55;;;;;;;;;3.33;3.33;;;;;22.68;60.15;100538.22;5057357;28;45365;-71
2023/07/23 11:05:21;;;;;;;;;6.33;6.00;;;;;23.00;61.53;100586.81;5056896;28;46193;-72
2023/07/23 11:08:11;;;;;;;;;4.00;4.00;;;;;22.93;62.06;100605.06;5038711;28;46070;-71
2023/07/23 11:10:52;;;;;;;;;5.33;3.67;;;;;22.87;62.84;100600.56;5038847;28;45352;-74
2023/07/23 11:13:20;;;;;;;;;6.33;5.00;;;;;22.54;63.27;100544.88;5055648;28;45521;-72
2023/07/23 11:15:46;;;;;;;;;6.33;5.00;;;;;22.83;62.22;100575.00;5055222;28;47747;-75
2023/07/23 11:18:12;;;;;;;;;6.00;4.00;;;;;23.04;62.60;100597.00;5057062;28;45428;-72
2023/07/23 11:20:43;;;;;;;;;4.00;4.00;;;;;23.10;62.56;100600.69;5057360;28;45522;-72
2023/07/23 11:23:11;;;;;;;;;6.00;4.00;;;;;23.14;62.46;100596.44;5057099;28;45308;-72